Time,TemperatureF,DewpointF,PressureIn,WindDirection,WindDirectionDegrees,WindSpeedMPH,WindSpeedGustMPH,Humidity,HourlyPrecipIn,Conditions,Clouds,dailyrainin,SoftwareType,DateUTC
2013-01-14 00:12:00,6.0,-7.0,-100.00,WNW,295,5.0,11.0,56,0.00,,,-99.99,,2013-01-14 06:12:00,
2013-01-14 00:22:00,6.0,-7.0,-100.00,WNW,295,5.0,11.0,56,0.00,,,-99.99,,2013-01-14 06:22:00,
2013-01-14 00:33:00,6.0,-7.0,-100.00,WNW,295,5.0,11.0,56,0.00,,,-99.99,,2013-01-14 06:33:00,
2013-01-14 00:43:00,6.0,-7.0,-100.00,WNW,295,5.0,11.0,56,0.00,,,-99.99,,2013-01-14 06:43:00,
2013-01-14 01:12:00,5.0,-7.0,-100.00,WNW,295,4.0,12.0,58,0.00,,,-99.99,,2013-01-14 07:12:00,
2013-01-14 01:22:00,5.0,-7.0,-100.00,WNW,295,4.0,12.0,58,0.00,,,-99.99,,2013-01-14 07:22:00,
2013-01-14 01:33:00,5.0,-7.0,-100.00,WNW,295,4.0,12.0,58,0.00,,,-99.99,,2013-01-14 07:33:00,
2013-01-14 01:42:00,5.0,-7.0,-100.00,WNW,295,4.0,12.0,58,0.00,,,-99.99,,2013-01-14 07:42:00,
2013-01-14 01:52:00,5.0,-7.0,-100.00,WNW,295,4.0,12.0,58,0.00,,,-99.99,,2013-01-14 07:52:00,
2013-01-14 02:12:00,4.0,-7.0,-100.00,WNW,300,4.0,9.0,60,0.00,,,-99.99,,2013-01-14 08:12:00,
2013-01-14 02:22:00,4.0,-7.0,-100.00,WNW,300,4.0,9.0,60,0.00,,,-99.99,,2013-01-14 08:22:00,
2013-01-14 02:32:00,4.0,-7.0,-100.00,WNW,300,4.0,9.0,60,0.00,,,-99.99,,2013-01-14 08:32:00,
2013-01-14 02:42:00,4.0,-7.0,-100.00,WNW,300,4.0,9.0,60,0.00,,,-99.99,,2013-01-14 08:42:00,
2013-01-14 02:52:00,4.0,-7.0,-100.00,WNW,300,4.0,9.0,60,0.00,,,-99.99,,2013-01-14 08:52:00,
2013-01-14 03:22:00,4.0,-6.0,-100.00,West,280,1.0,7.0,62,0.00,,,-99.99,,2013-01-14 09:22:00,
2013-01-14 03:33:00,4.0,-6.0,-100.00,West,280,1.0,7.0,62,0.00,,,-99.99,,2013-01-14 09:33:00,
2013-01-14 03:43:00,4.0,-6.0,-100.00,West,280,1.0,7.0,62,0.00,,,-99.99,,2013-01-14 09:43:00,
2013-01-14 03:52:00,4.0,-6.0,-100.00,West,280,1.0,7.0,62,0.00,,,-99.99,,2013-01-14 09:52:00,
2013-01-14 04:12:00,1.0,-9.0,-100.00,West,260,1.0,3.0,64,0.00,,,-99.99,,2013-01-14 10:12:00,
2013-01-14 04:22:00,1.0,-9.0,-100.00,West,260,1.0,3.0,64,0.00,,,-99.99,,2013-01-14 10:22:00,
2013-01-14 04:32:00,1.0,-9.0,-100.00,West,260,1.0,3.0,64,0.00,,,-99.99,,2013-01-14 10:32:00,
2013-01-14 04:42:00,1.0,-9.0,-100.00,West,260,1.0,3.0,64,0.00,,,-99.99,,2013-01-14 10:42:00,
2013-01-14 04:52:00,1.0,-9.0,-100.00,West,260,1.0,3.0,64,0.00,,,-99.99,,2013-01-14 10:52:00,
2013-01-14 05:22:00,1.0,-8.0,-100.00,West,265,1.0,5.0,65,0.00,,,-99.99,,2013-01-14 11:22:00,
2013-01-14 05:32:00,1.0,-8.0,-100.00,West,265,1.0,5.0,65,0.00,,,-99.99,,2013-01-14 11:32:00,
2013-01-14 05:42:00,1.0,-8.0,-100.00,West,265,1.0,5.0,65,0.00,,,-99.99,,2013-01-14 11:42:00,
2013-01-14 05:53:00,1.0,-8.0,-100.00,West,265,1.0,5.0,65,0.00,,,-99.99,,2013-01-14 11:53:00,
2013-01-14 06:23:00,0.0,-9.0,-100.00,SSW,195,1.0,2.0,66,0.00,,,-99.99,,2013-01-14 12:23:00,
2013-01-14 06:33:00,0.0,-9.0,-100.00,SSW,195,1.0,2.0,66,0.00,,,-99.99,,2013-01-14 12:33:00,
2013-01-14 06:43:00,0.0,-9.0,-100.00,SSW,195,1.0,2.0,66,0.00,,,-99.99,,2013-01-14 12:43:00,
2013-01-14 06:53:00,0.0,-9.0,-100.00,SSW,195,1.0,2.0,66,0.00,,,-99.99,,2013-01-14 12:53:00,
2013-01-14 07:23:00,-1.0,-10.0,-100.00,West,265,1.0,2.0,66,0.00,,,-99.99,,2013-01-14 13:23:00,
2013-01-14 07:33:00,-1.0,-10.0,-100.00,West,265,1.0,2.0,66,0.00,,,-99.99,,2013-01-14 13:33:00,
2013-01-14 07:43:00,-1.0,-10.0,-100.00,West,265,1.0,2.0,66,0.00,,,-99.99,,2013-01-14 13:43:00,
2013-01-14 07:53:00,-1.0,-10.0,-100.00,West,265,1.0,2.0,66,0.00,,,-99.99,,2013-01-14 13:53:00,
2013-01-14 08:23:00,0.0,-9.0,-100.00,WSW,240,1.0,2.0,67,0.00,,,-99.99,,2013-01-14 14:23:00,
2013-01-14 08:33:00,0.0,-9.0,-100.00,WSW,240,1.0,2.0,67,0.00,,,-99.99,,2013-01-14 14:33:00,
2013-01-14 08:43:00,0.0,-9.0,-100.00,WSW,240,1.0,2.0,67,0.00,,,-99.99,,2013-01-14 14:43:00,
2013-01-14 08:53:00,0.0,-9.0,-100.00,WSW,240,1.0,2.0,67,0.00,,,-99.99,,2013-01-14 14:53:00,
2013-01-14 09:23:00,8.0,-2.0,-100.00,SW,235,1.0,7.0,65,0.00,,,-99.99,,2013-01-14 15:23:00,
2013-01-14 09:33:00,8.0,-2.0,-100.00,SW,235,1.0,7.0,65,0.00,,,-99.99,,2013-01-14 15:33:00,
2013-01-14 09:43:00,8.0,-2.0,-100.00,SW,235,1.0,7.0,65,0.00,,,-99.99,,2013-01-14 15:43:00,
2013-01-14 09:53:00,8.0,-2.0,-100.00,SW,235,1.0,7.0,65,0.00,,,-99.99,,2013-01-14 15:53:00,
2013-01-14 10:12:00,12.0,-2.0,-100.00,West,275,1.0,5.0,52,0.00,,,-99.99,,2013-01-14 16:12:00,
2013-01-14 10:23:00,12.0,-2.0,-100.00,West,275,1.0,5.0,52,0.00,,,-99.99,,2013-01-14 16:23:00,
2013-01-14 10:33:00,12.0,-2.0,-100.00,West,275,1.0,5.0,52,0.00,,,-99.99,,2013-01-14 16:33:00,
2013-01-14 10:43:00,12.0,-2.0,-100.00,West,275,1.0,5.0,52,0.00,,,-99.99,,2013-01-14 16:43:00,
2013-01-14 10:53:00,14.0,-3.0,-100.00,NW,305,3.0,10.0,46,0.00,,,-99.99,,2013-01-14 16:53:00,
2013-01-14 11:12:00,14.0,-3.0,-100.00,NW,305,3.0,10.0,46,0.00,,,-99.99,,2013-01-14 17:12:00,
2013-01-14 11:23:00,14.0,-3.0,-100.00,NW,305,3.0,10.0,46,0.00,,,-99.99,,2013-01-14 17:23:00,
2013-01-14 11:33:00,14.0,-3.0,-100.00,NW,305,3.0,10.0,46,0.00,,,-99.99,,2013-01-14 17:33:00,
2013-01-14 11:43:00,14.0,-3.0,-100.00,NW,305,3.0,10.0,46,0.00,,,-99.99,,2013-01-14 17:43:00,
2013-01-14 11:51:00,15.0,-3.0,-100.00,West,275,7.0,13.0,46,0.00,,,-99.99,,2013-01-14 17:51:00,
2013-01-14 12:13:00,15.0,-3.0,-100.00,West,275,7.0,13.0,46,0.00,,,-99.99,,2013-01-14 18:13:00,
2013-01-14 12:23:00,15.0,-3.0,-100.00,West,275,7.0,13.0,46,0.00,,,-99.99,,2013-01-14 18:23:00,
2013-01-14 12:33:00,15.0,-3.0,-100.00,West,275,7.0,13.0,46,0.00,,,-99.99,,2013-01-14 18:33:00,
2013-01-14 12:43:00,15.0,-3.0,-100.00,West,275,7.0,13.0,46,0.00,,,-99.99,,2013-01-14 18:43:00,
2013-01-14 13:12:00,15.0,-2.0,-100.00,WSW,255,2.0,12.0,46,0.00,,,-99.99,,2013-01-14 19:12:00,
2013-01-14 13:22:00,15.0,-2.0,-100.00,WSW,255,2.0,12.0,46,0.00,,,-99.99,,2013-01-14 19:22:00,
2013-01-14 13:33:00,15.0,-2.0,-100.00,WSW,255,2.0,12.0,46,0.00,,,-99.99,,2013-01-14 19:33:00,
2013-01-14 13:43:00,15.0,-2.0,-100.00,WSW,255,2.0,12.0,46,0.00,,,-99.99,,2013-01-14 19:43:00,
2013-01-14 13:52:00,15.0,-2.0,-100.00,WSW,255,2.0,12.0,46,0.00,,,-99.99,,2013-01-14 19:52:00,
2013-01-14 13:53:00,16.0,-1.0,-100.00,West,280,5.0,17.0,47,0.00,,,-99.99,,2013-01-14 19:53:00,
2013-01-14 14:13:00,16.0,-1.0,-100.00,West,280,5.0,17.0,47,0.00,,,-99.99,,2013-01-14 20:13:00,
2013-01-14 14:22:00,16.0,-1.0,-100.00,West,280,5.0,17.0,47,0.00,,,-99.99,,2013-01-14 20:22:00,
2013-01-14 14:33:00,16.0,-1.0,-100.00,West,280,5.0,17.0,47,0.00,,,-99.99,,2013-01-14 20:33:00,
2013-01-14 14:43:00,16.0,-1.0,-100.00,West,280,5.0,17.0,47,0.00,,,-99.99,,2013-01-14 20:43:00,
2013-01-14 14:53:00,16.0,-2.0,-100.00,West,280,7.0,13.0,44,0.00,,,-99.99,,2013-01-14 20:53:00,
2013-01-14 15:12:00,16.0,-2.0,-100.00,West,280,7.0,13.0,44,0.00,,,-99.99,,2013-01-14 21:12:00,
2013-01-14 15:23:00,16.0,-2.0,-100.00,West,280,7.0,13.0,44,0.00,,,-99.99,,2013-01-14 21:23:00,
2013-01-14 15:33:00,16.0,-2.0,-100.00,West,280,7.0,13.0,44,0.00,,,-99.99,,2013-01-14 21:33:00,
2013-01-14 15:42:00,16.0,-2.0,-100.00,West,280,7.0,13.0,44,0.00,,,-99.99,,2013-01-14 21:42:00,
2013-01-14 16:12:00,15.0,-2.0,-100.00,West,280,4.0,12.0,47,0.00,,,-99.99,,2013-01-14 22:12:00,
2013-01-14 16:23:00,15.0,-2.0,-100.00,West,280,4.0,12.0,47,0.00,,,-99.99,,2013-01-14 22:23:00,
2013-01-14 16:33:00,15.0,-2.0,-100.00,West,280,4.0,12.0,47,0.00,,,-99.99,,2013-01-14 22:33:00,
2013-01-14 16:43:00,15.0,-2.0,-100.00,West,280,4.0,12.0,47,0.00,,,-99.99,,2013-01-14 22:43:00,
2013-01-14 16:52:00,15.0,-2.0,-100.00,West,280,4.0,12.0,47,0.00,,,-99.99,,2013-01-14 22:52:00,
2013-01-14 17:12:00,13.0,-2.0,-100.00,WSW,250,1.0,8.0,50,0.00,,,-99.99,,2013-01-14 23:12:00,
2013-01-14 17:23:00,13.0,-2.0,-100.00,WSW,250,1.0,8.0,50,0.00,,,-99.99,,2013-01-14 23:23:00,
2013-01-14 17:33:00,13.0,-2.0,-100.00,WSW,250,1.0,8.0,50,0.00,,,-99.99,,2013-01-14 23:33:00,
2013-01-14 17:43:00,13.0,-2.0,-100.00,WSW,250,1.0,8.0,50,0.00,,,-99.99,,2013-01-14 23:43:00,
2013-01-14 17:52:00,13.0,-2.0,-100.00,WSW,250,1.0,8.0,50,0.00,,,-99.99,,2013-01-14 23:52:00,
2013-01-14 18:12:00,14.0,0.0,-100.00,West,270,1.0,7.0,53,0.00,,,-99.99,,2013-01-15 00:12:00,
2013-01-14 18:22:00,14.0,0.0,-100.00,West,270,1.0,7.0,53,0.00,,,-99.99,,2013-01-15 00:22:00,
2013-01-14 18:33:00,14.0,0.0,-100.00,West,270,1.0,7.0,53,0.00,,,-99.99,,2013-01-15 00:33:00,
2013-01-14 18:43:00,14.0,0.0,-100.00,West,270,1.0,7.0,53,0.00,,,-99.99,,2013-01-15 00:43:00,
2013-01-14 18:52:00,14.0,1.0,-100.00,WNW,295,2.0,6.0,54,0.00,,,-99.99,,2013-01-15 00:52:00,
2013-01-14 19:12:00,14.0,1.0,-100.00,WNW,295,2.0,6.0,54,0.00,,,-99.99,,2013-01-15 01:12:00,
2013-01-14 19:22:00,14.0,1.0,-100.00,WNW,295,2.0,6.0,54,0.00,,,-99.99,,2013-01-15 01:22:00,
2013-01-14 19:32:00,14.0,1.0,-100.00,WNW,295,2.0,6.0,54,0.00,,,-99.99,,2013-01-15 01:32:00,
2013-01-14 19:43:00,14.0,1.0,-100.00,WNW,295,2.0,6.0,54,0.00,,,-99.99,,2013-01-15 01:43:00,
2013-01-14 19:52:00,13.0,0.0,-100.00,West,280,3.0,7.0,55,0.00,,,-99.99,,2013-01-15 01:52:00,
2013-01-14 20:12:00,13.0,0.0,-100.00,West,280,3.0,7.0,55,0.00,,,-99.99,,2013-01-15 02:12:00,
2013-01-14 20:22:00,13.0,0.0,-100.00,West,280,3.0,7.0,55,0.00,,,-99.99,,2013-01-15 02:22:00,
2013-01-14 20:32:00,13.0,0.0,-100.00,West,280,3.0,7.0,55,0.00,,,-99.99,,2013-01-15 02:32:00,
2013-01-14 20:42:00,13.0,0.0,-100.00,West,280,3.0,7.0,55,0.00,,,-99.99,,2013-01-15 02:42:00,
2013-01-14 21:12:00,12.0,0.0,-100.00,WNW,295,2.0,6.0,58,0.00,,,-99.99,,2013-01-15 03:12:00,
2013-01-14 21:22:00,12.0,0.0,-100.00,WNW,295,2.0,6.0,58,0.00,,,-99.99,,2013-01-15 03:22:00,
2013-01-14 21:33:00,12.0,0.0,-100.00,WNW,295,2.0,6.0,58,0.00,,,-99.99,,2013-01-15 03:33:00,
2013-01-14 21:42:00,12.0,0.0,-100.00,WNW,295,2.0,6.0,58,0.00,,,-99.99,,2013-01-15 03:42:00,
2013-01-14 21:51:00,10.0,0.0,-100.00,NNW,345,1.0,5.0,62,0.00,,,-99.99,,2013-01-15 03:51:00,
2013-01-14 21:52:00,12.0,0.0,-100.00,WNW,295,2.0,6.0,58,0.00,,,-99.99,,2013-01-15 03:52:00,
2013-01-14 22:12:00,10.0,0.0,-100.00,NNW,345,1.0,5.0,62,0.00,,,-99.99,,2013-01-15 04:12:00,
2013-01-14 22:22:00,10.0,0.0,-100.00,NNW,345,1.0,5.0,62,0.00,,,-99.99,,2013-01-15 04:22:00,
2013-01-14 22:32:00,10.0,0.0,-100.00,NNW,345,1.0,5.0,62,0.00,,,-99.99,,2013-01-15 04:32:00,
2013-01-14 22:42:00,10.0,0.0,-100.00,NNW,345,1.0,5.0,62,0.00,,,-99.99,,2013-01-15 04:42:00,
2013-01-14 22:51:00,7.0,-2.0,-100.00,East,95,0.0,1.0,65,0.00,,,-99.99,,2013-01-15 04:51:00,
2013-01-14 23:12:00,7.0,-2.0,-100.00,East,95,0.0,1.0,65,0.00,,,-99.99,,2013-01-15 05:12:00,
2013-01-14 23:22:00,7.0,-2.0,-100.00,East,95,0.0,1.0,65,0.00,,,-99.99,,2013-01-15 05:22:00,
2013-01-14 23:33:00,7.0,-2.0,-100.00,East,95,0.0,1.0,65,0.00,,,-99.99,,2013-01-15 05:33:00,
2013-01-14 23:42:00,7.0,-2.0,-100.00,East,95,0.0,1.0,65,0.00,,,-99.99,,2013-01-15 05:42:00,
2013-01-14 23:51:00,4.0,-4.0,-100.00,NNE,20,0.0,3.0,68,0.00,,,-99.99,,2013-01-15 05:51:00,